sensor_id;sensor_type;location;lat;lon;timestamp;P1;P2;P0
46885;PMS5003;32622;48.202;11.326;2023-05-10T00:01:18;23;22;
46885;PMS5003;32622;48.202;11.326;2023-05-10T00:03:22;23;22;
46885;PMS5003;32622;48.202;11.326;2023-05-10T00:05:26;23;22;
46885;PMS5003;32622;48.202;11.326;2023-05-10T00:07:31;23;22;
46885;PMS5003;32622;48.202;11.326;2023-05-10T00:09:35;21;21;
46885;PMS5003;32622;48.202;11.326;2023-05-10T00:11:39;22;22;
46885;PMS5003;32622;48.202;11.326;2023-05-10T00:13:42;22;22;
46885;PMS5003;32622;48.202;11.326;2023-05-10T00:15:45;21;21;
46885;PMS5003;32622;48.202;11.326;2023-05-10T00:17:53;20;20;
46885;PMS5003;32622;48.202;11.326;2023-05-10T00:19:59;20;20;
46885;PMS5003;32622;48.202;11.326;2023-05-10T00:22:03;20;20;
46885;PMS5003;32622;48.202;11.326;2023-05-10T00:24:08;20;20;
46885;PMS5003;32622;48.202;11.326;2023-05-10T00:26:11;21;21;
46885;PMS5003;32622;48.202;11.326;2023-05-10T00:28:15;21;20;
46885;PMS5003;32622;48.202;11.326;2023-05-10T00:30:18;21;20;
46885;PMS5003;32622;48.202;11.326;2023-05-10T00:32:22;20;19;
46885;PMS5003;32622;48.202;11.326;2023-05-10T00:34:26;21;18;
46885;PMS5003;32622;48.202;11.326;2023-05-10T00:36:31;21;18;
46885;PMS5003;32622;48.202;11.326;2023-05-10T00:38:35;21;18;
46885;PMS5003;32622;48.202;11.326;2023-05-10T00:41:03;22;19;
46885;PMS5003;32622;48.202;11.326;2023-05-10T00:43:14;22;19;
46885;PMS5003;32622;48.202;11.326;2023-05-10T00:45:20;22;19;
46885;PMS5003;32622;48.202;11.326;2023-05-10T00:47:26;21;18;
46885;PMS5003;32622;48.202;11.326;2023-05-10T00:49:31;21;18;
46885;PMS5003;32622;48.202;11.326;2023-05-10T00:51:34;21;18;
46885;PMS5003;32622;48.202;11.326;2023-05-10T00:53:38;21;17;
46885;PMS5003;32622;48.202;11.326;2023-05-10T00:55:41;21;17;
46885;PMS5003;32622;48.202;11.326;2023-05-10T00:57:44;21;17;
46885;PMS5003;32622;48.202;11.326;2023-05-10T00:59:59;20;17;
46885;PMS5003;32622;48.202;11.326;2023-05-10T01:02:04;20;17;
46885;PMS5003;32622;48.202;11.326;2023-05-10T01:04:09;20;17;
46885;PMS5003;32622;48.202;11.326;2023-05-10T01:06:14;20;17;
46885;PMS5003;32622;48.202;11.326;2023-05-10T01:08:17;20;17;
46885;PMS5003;32622;48.202;11.326;2023-05-10T01:10:21;20;17;
46885;PMS5003;32622;48.202;11.326;2023-05-10T01:12:25;21;18;
46885;PMS5003;32622;48.202;11.326;2023-05-10T01:14:29;21;18;
46885;PMS5003;32622;48.202;11.326;2023-05-10T01:16:34;21;18;
46885;PMS5003;32622;48.202;11.326;2023-05-10T01:18:40;21;18;
46885;PMS5003;32622;48.202;11.326;2023-05-10T01:20:45;21;18;
46885;PMS5003;32622;48.202;11.326;2023-05-10T01:23:07;21;18;
46885;PMS5003;32622;48.202;11.326;2023-05-10T01:25:39;22;18;
46885;PMS5003;32622;48.202;11.326;2023-05-10T01:28:18;22;18;
46885;PMS5003;32622;48.202;11.326;2023-05-10T01:30:45;22;18;
46885;PMS5003;32622;48.202;11.326;2023-05-10T01:33:07;20;18;
46885;PMS5003;32622;48.202;11.326;2023-05-10T01:35:22;20;18;
46885;PMS5003;32622;48.202;11.326;2023-05-10T01:37:37;20;18;
46885;PMS5003;32622;48.202;11.326;2023-05-10T01:39:50;19;19;
46885;PMS5003;32622;48.202;11.326;2023-05-10T01:42:03;19;19;
46885;PMS5003;32622;48.202;11.326;2023-05-10T01:44:13;19;19;
46885;PMS5003;32622;48.202;11.326;2023-05-10T01:46:28;19;19;
46885;PMS5003;32622;48.202;11.326;2023-05-10T01:48:38;19;19;
46885;PMS5003;32622;48.202;11.326;2023-05-10T01:50:48;19;19;
46885;PMS5003;32622;48.202;11.326;2023-05-10T01:52:54;18;18;
46885;PMS5003;32622;48.202;11.326;2023-05-10T01:55:02;18;18;
46885;PMS5003;32622;48.202;11.326;2023-05-10T01:57:07;18;18;
46885;PMS5003;32622;48.202;11.326;2023-05-10T01:59:15;19;19;
46885;PMS5003;32622;48.202;11.326;2023-05-10T02:01:22;19;19;
46885;PMS5003;32622;48.202;11.326;2023-05-10T02:03:30;19;19;
46885;PMS5003;32622;48.202;11.326;2023-05-10T02:05:37;20;19;
46885;PMS5003;32622;48.202;11.326;2023-05-10T02:07:47;20;19;
46885;PMS5003;32622;48.202;11.326;2023-05-10T02:09:52;21;20;
46885;PMS5003;32622;48.202;11.326;2023-05-10T02:11:55;20;19;
46885;PMS5003;32622;48.202;11.326;2023-05-10T02:14:02;20;19;
46885;PMS5003;32622;48.202;11.326;2023-05-10T02:16:08;20;19;
46885;PMS5003;32622;48.202;11.326;2023-05-10T02:18:15;21;20;
46885;PMS5003;32622;48.202;11.326;2023-05-10T02:20:19;21;20;
46885;PMS5003;32622;48.202;11.326;2023-05-10T02:22:24;21;20;
46885;PMS5003;32622;48.202;11.326;2023-05-10T02:24:30;21;20;
46885;PMS5003;32622;48.202;11.326;2023-05-10T02:26:35;21;20;
46885;PMS5003;32622;48.202;11.326;2023-05-10T02:28:40;21;20;
46885;PMS5003;32622;48.202;11.326;2023-05-10T02:30:46;21;20;
46885;PMS5003;32622;48.202;11.326;2023-05-10T02:32:50;21;20;
46885;PMS5003;32622;48.202;11.326;2023-05-10T02:34:54;21;20;
46885;PMS5003;32622;48.202;11.326;2023-05-10T02:36:59;21;20;
46885;PMS5003;32622;48.202;11.326;2023-05-10T02:39:06;21;20;
46885;PMS5003;32622;48.202;11.326;2023-05-10T02:41:13;21;20;
46885;PMS5003;32622;48.202;11.326;2023-05-10T02:43:17;21;20;
46885;PMS5003;32622;48.202;11.326;2023-05-10T02:45:25;21;20;
46885;PMS5003;32622;48.202;11.326;2023-05-10T02:47:32;21;20;
46885;PMS5003;32622;48.202;11.326;2023-05-10T02:49:36;21;20;
46885;PMS5003;32622;48.202;11.326;2023-05-10T02:51:40;21;20;
46885;PMS5003;32622;48.202;11.326;2023-05-10T02:53:49;21;20;
46885;PMS5003;32622;48.202;11.326;2023-05-10T02:55:57;22;21;
46885;PMS5003;32622;48.202;11.326;2023-05-10T02:58:03;22;21;
46885;PMS5003;32622;48.202;11.326;2023-05-10T03:00:07;22;21;
46885;PMS5003;32622;48.202;11.326;2023-05-10T03:02:12;23;21;
46885;PMS5003;32622;48.202;11.326;2023-05-10T03:04:15;23;21;
46885;PMS5003;32622;48.202;11.326;2023-05-10T03:06:19;23;21;
46885;PMS5003;32622;48.202;11.326;2023-05-10T03:08:26;22;21;
46885;PMS5003;32622;48.202;11.326;2023-05-10T03:10:30;22;21;
46885;PMS5003;32622;48.202;11.326;2023-05-10T03:12:50;22;21;
46885;PMS5003;32622;48.202;11.326;2023-05-10T03:15:07;24;22;
46885;PMS5003;32622;48.202;11.326;2023-05-10T03:17:23;24;22;
46885;PMS5003;32622;48.202;11.326;2023-05-10T03:19:37;24;22;
46885;PMS5003;32622;48.202;11.326;2023-05-10T03:22:04;24;22;
46885;PMS5003;32622;48.202;11.326;2023-05-10T03:24:13;24;22;
46885;PMS5003;32622;48.202;11.326;2023-05-10T03:26:21;24;22;
46885;PMS5003;32622;48.202;11.326;2023-05-10T03:28:28;24;21;
46885;PMS5003;32622;48.202;11.326;2023-05-10T03:30:36;24;21;
46885;PMS5003;32622;48.202;11.326;2023-05-10T03:32:44;24;21;
46885;PMS5003;32622;48.202;11.326;2023-05-10T03:34:54;24;22;
46885;PMS5003;32622;48.202;11.326;2023-05-10T03:37:01;24;22;
46885;PMS5003;32622;48.202;11.326;2023-05-10T03:39:18;24;22;
46885;PMS5003;32622;48.202;11.326;2023-05-10T03:41:24;24;22;
46885;PMS5003;32622;48.202;11.326;2023-05-10T03:43:30;24;22;
46885;PMS5003;32622;48.202;11.326;2023-05-10T03:45:45;24;22;
46885;PMS5003;32622;48.202;11.326;2023-05-10T03:47:58;24;21;
46885;PMS5003;32622;48.202;11.326;2023-05-10T03:50:09;24;21;
46885;PMS5003;32622;48.202;11.326;2023-05-10T03:52:28;24;21;
46885;PMS5003;32622;48.202;11.326;2023-05-10T03:54:34;24;20;
46885;PMS5003;32622;48.202;11.326;2023-05-10T03:56:40;24;20;
46885;PMS5003;32622;48.202;11.326;2023-05-10T03:58:45;24;20;
46885;PMS5003;32622;48.202;11.326;2023-05-10T04:01:03;24;20;
46885;PMS5003;32622;48.202;11.326;2023-05-10T04:03:07;24;20;
46885;PMS5003;32622;48.202;11.326;2023-05-10T04:05:12;24;20;
46885;PMS5003;32622;48.202;11.326;2023-05-10T04:07:18;22;19;
46885;PMS5003;32622;48.202;11.326;2023-05-10T04:09:22;22;19;
46885;PMS5003;32622;48.202;11.326;2023-05-10T04:11:26;22;19;
46885;PMS5003;32622;48.202;11.326;2023-05-10T04:13:31;24;20;
46885;PMS5003;32622;48.202;11.326;2023-05-10T04:15:35;24;20;
46885;PMS5003;32622;48.202;11.326;2023-05-10T04:17:40;24;20;
46885;PMS5003;32622;48.202;11.326;2023-05-10T04:19:45;22;19;
46885;PMS5003;32622;48.202;11.326;2023-05-10T04:21:51;21;19;
46885;PMS5003;32622;48.202;11.326;2023-05-10T04:23:54;22;19;
46885;PMS5003;32622;48.202;11.326;2023-05-10T04:25:59;21;19;
46885;PMS5003;32622;48.202;11.326;2023-05-10T04:28:03;22;19;
46885;PMS5003;32622;48.202;11.326;2023-05-10T04:30:07;22;20;
46885;PMS5003;32622;48.202;11.326;2023-05-10T04:32:11;22;19;
46885;PMS5003;32622;48.202;11.326;2023-05-10T04:34:32;20;19;
46885;PMS5003;32622;48.202;11.326;2023-05-10T04:37:15;20;19;
46885;PMS5003;32622;48.202;11.326;2023-05-10T04:42:35;21;18;
46885;PMS5003;32622;48.202;11.326;2023-05-10T04:44:40;21;18;
46885;PMS5003;32622;48.202;11.326;2023-05-10T04:46:44;20;18;
46885;PMS5003;32622;48.202;11.326;2023-05-10T04:48:47;20;18;
46885;PMS5003;32622;48.202;11.326;2023-05-10T04:50:50;20;18;
46885;PMS5003;32622;48.202;11.326;2023-05-10T04:52:54;18;17;
46885;PMS5003;32622;48.202;11.326;2023-05-10T04:54:58;18;17;
46885;PMS5003;32622;48.202;11.326;2023-05-10T04:57:02;18;17;
46885;PMS5003;32622;48.202;11.326;2023-05-10T04:59:06;18;17;
46885;PMS5003;32622;48.202;11.326;2023-05-10T05:01:10;18;17;
46885;PMS5003;32622;48.202;11.326;2023-05-10T05:03:15;19;18;
46885;PMS5003;32622;48.202;11.326;2023-05-10T05:05:20;20;19;
46885;PMS5003;32622;48.202;11.326;2023-05-10T05:07:24;19;19;
46885;PMS5003;32622;48.202;11.326;2023-05-10T05:18:34;16;13;
46885;PMS5003;32622;48.202;11.326;2023-05-10T05:22:57;15;14;
46885;PMS5003;32622;48.202;11.326;2023-05-10T05:25:42;15;14;
46885;PMS5003;32622;48.202;11.326;2023-05-10T05:28:18;15;14;
46885;PMS5003;32622;48.202;11.326;2023-05-10T05:30:30;15;14;
46885;PMS5003;32622;48.202;11.326;2023-05-10T05:33:19;14;13;
46885;PMS5003;32622;48.202;11.326;2023-05-10T05:36:32;14;13;
46885;PMS5003;32622;48.202;11.326;2023-05-10T05:38:49;14;13;
46885;PMS5003;32622;48.202;11.326;2023-05-10T05:41:13;13;13;
46885;PMS5003;32622;48.202;11.326;2023-05-10T05:44:38;17;16;
46885;PMS5003;32622;48.202;11.326;2023-05-10T05:46:41;17;16;
46885;PMS5003;32622;48.202;11.326;2023-05-10T05:48:45;17;16;
46885;PMS5003;32622;48.202;11.326;2023-05-10T05:50:54;19;18;
46885;PMS5003;32622;48.202;11.326;2023-05-10T05:52:59;18;17;
46885;PMS5003;32622;48.202;11.326;2023-05-10T05:55:03;19;18;
46885;PMS5003;32622;48.202;11.326;2023-05-10T05:57:07;20;18;
46885;PMS5003;32622;48.202;11.326;2023-05-10T05:59:17;21;19;
46885;PMS5003;32622;48.202;11.326;2023-05-10T06:01:20;22;20;
46885;PMS5003;32622;48.202;11.326;2023-05-10T06:03:25;22;21;
46885;PMS5003;32622;48.202;11.326;2023-05-10T06:05:30;24;23;
46885;PMS5003;32622;48.202;11.326;2023-05-10T06:07:34;25;24;
46885;PMS5003;32622;48.202;11.326;2023-05-10T06:09:42;26;25;
46885;PMS5003;32622;48.202;11.326;2023-05-10T06:11:45;25;23;
46885;PMS5003;32622;48.202;11.326;2023-05-10T06:13:49;24;22;
46885;PMS5003;32622;48.202;11.326;2023-05-10T06:15:56;24;21;
46885;PMS5003;32622;48.202;11.326;2023-05-10T06:17:59;24;21;
46885;PMS5003;32622;48.202;11.326;2023-05-10T06:20:03;24;21;
46885;PMS5003;32622;48.202;11.326;2023-05-10T06:22:09;24;22;
46885;PMS5003;32622;48.202;11.326;2023-05-10T06:24:13;24;22;
46885;PMS5003;32622;48.202;11.326;2023-05-10T06:26:16;24;22;
46885;PMS5003;32622;48.202;11.326;2023-05-10T06:28:20;24;21;
46885;PMS5003;32622;48.202;11.326;2023-05-10T06:30:24;24;21;
46885;PMS5003;32622;48.202;11.326;2023-05-10T06:32:27;24;21;
46885;PMS5003;32622;48.202;11.326;2023-05-10T06:34:31;23;21;
46885;PMS5003;32622;48.202;11.326;2023-05-10T06:36:34;23;21;
46885;PMS5003;32622;48.202;11.326;2023-05-10T06:38:38;23;21;
46885;PMS5003;32622;48.202;11.326;2023-05-10T06:40:41;23;21;
46885;PMS5003;32622;48.202;11.326;2023-05-10T06:42:44;23;21;
46885;PMS5003;32622;48.202;11.326;2023-05-10T06:44:48;23;21;
46885;PMS5003;32622;48.202;11.326;2023-05-10T07:09:49;21;19;
46885;PMS5003;32622;48.202;11.326;2023-05-10T07:15:36;21;19;
46885;PMS5003;32622;48.202;11.326;2023-05-10T07:24:54;21;20;
46885;PMS5003;32622;48.202;11.326;2023-05-10T07:27:00;21;20;
46885;PMS5003;32622;48.202;11.326;2023-05-10T07:29:10;21;20;
46885;PMS5003;32622;48.202;11.326;2023-05-10T07:31:25;21;19;
46885;PMS5003;32622;48.202;11.326;2023-05-10T07:33:30;21;19;
46885;PMS5003;32622;48.202;11.326;2023-05-10T07:35:49;21;19;
46885;PMS5003;32622;48.202;11.326;2023-05-10T07:37:58;22;21;
46885;PMS5003;32622;48.202;11.326;2023-05-10T07:40:02;22;21;
46885;PMS5003;32622;48.202;11.326;2023-05-10T07:42:08;22;21;
46885;PMS5003;32622;48.202;11.326;2023-05-10T07:44:15;23;21;
46885;PMS5003;32622;48.202;11.326;2023-05-10T07:49:29;21;19;
46885;PMS5003;32622;48.202;11.326;2023-05-10T07:51:44;21;19;
46885;PMS5003;32622;48.202;11.326;2023-05-10T07:56:23;20;18;
46885;PMS5003;32622;48.202;11.326;2023-05-10T07:58:36;20;18;
46885;PMS5003;32622;48.202;11.326;2023-05-10T08:00:51;19;18;
46885;PMS5003;32622;48.202;11.326;2023-05-10T08:03:00;19;18;
46885;PMS5003;32622;48.202;11.326;2023-05-10T08:05:14;19;18;
46885;PMS5003;32622;48.202;11.326;2023-05-10T08:08:15;17;17;
46885;PMS5003;32622;48.202;11.326;2023-05-10T08:10:37;17;17;
46885;PMS5003;32622;48.202;11.326;2023-05-10T08:12:42;17;17;
46885;PMS5003;32622;48.202;11.326;2023-05-10T08:14:46;17;17;
46885;PMS5003;32622;48.202;11.326;2023-05-10T08:16:52;17;17;
46885;PMS5003;32622;48.202;11.326;2023-05-10T08:18:55;17;17;
46885;PMS5003;32622;48.202;11.326;2023-05-10T08:20:59;17;17;
46885;PMS5003;32622;48.202;11.326;2023-05-10T08:23:03;17;17;
46885;PMS5003;32622;48.202;11.326;2023-05-10T08:25:08;17;17;
46885;PMS5003;32622;48.202;11.326;2023-05-10T08:27:11;18;18;
46885;PMS5003;32622;48.202;11.326;2023-05-10T08:29:20;20;19;
46885;PMS5003;32622;48.202;11.326;2023-05-10T08:31:23;21;19;
46885;PMS5003;32622;48.202;11.326;2023-05-10T08:33:26;22;20;
46885;PMS5003;32622;48.202;11.326;2023-05-10T08:35:30;22;19;
46885;PMS5003;32622;48.202;11.326;2023-05-10T08:37:36;23;21;
46885;PMS5003;32622;48.202;11.326;2023-05-10T08:39:43;23;21;
46885;PMS5003;32622;48.202;11.326;2023-05-10T08:41:47;23;21;
46885;PMS5003;32622;48.202;11.326;2023-05-10T08:43:54;24;20;
46885;PMS5003;32622;48.202;11.326;2023-05-10T08:46:02;25;21;
46885;PMS5003;32622;48.202;11.326;2023-05-10T08:48:20;24;20;
46885;PMS5003;32622;48.202;11.326;2023-05-10T08:50:26;22;20;
46885;PMS5003;32622;48.202;11.326;2023-05-10T08:52:32;22;21;
46885;PMS5003;32622;48.202;11.326;2023-05-10T08:54:40;22;21;
46885;PMS5003;32622;48.202;11.326;2023-05-10T08:56:44;22;21;
46885;PMS5003;32622;48.202;11.326;2023-05-10T08:58:47;22;21;
46885;PMS5003;32622;48.202;11.326;2023-05-10T09:00:51;22;21;
46885;PMS5003;32622;48.202;11.326;2023-05-10T09:02:56;22;21;
46885;PMS5003;32622;48.202;11.326;2023-05-10T09:05:01;22;21;
46885;PMS5003;32622;48.202;11.326;2023-05-10T09:07:07;22;21;
46885;PMS5003;32622;48.202;11.326;2023-05-10T09:09:10;22;21;
46885;PMS5003;32622;48.202;11.326;2023-05-10T09:11:16;21;19;
46885;PMS5003;32622;48.202;11.326;2023-05-10T09:13:21;21;19;
46885;PMS5003;32622;48.202;11.326;2023-05-10T09:15:27;21;19;
46885;PMS5003;32622;48.202;11.326;2023-05-10T09:17:31;20;18;
46885;PMS5003;32622;48.202;11.326;2023-05-10T09:19:36;20;18;
46885;PMS5003;32622;48.202;11.326;2023-05-10T09:21:40;20;18;
46885;PMS5003;32622;48.202;11.326;2023-05-10T09:23:44;20;18;
46885;PMS5003;32622;48.202;11.326;2023-05-10T09:25:48;20;18;
46885;PMS5003;32622;48.202;11.326;2023-05-10T09:28:06;20;18;
46885;PMS5003;32622;48.202;11.326;2023-05-10T09:30:10;19;18;
46885;PMS5003;32622;48.202;11.326;2023-05-10T09:32:17;19;18;
46885;PMS5003;32622;48.202;11.326;2023-05-10T09:34:28;19;18;
46885;PMS5003;32622;48.202;11.326;2023-05-10T09:36:33;20;18;
46885;PMS5003;32622;48.202;11.326;2023-05-10T09:38:45;20;18;
46885;PMS5003;32622;48.202;11.326;2023-05-10T09:40:52;20;18;
46885;PMS5003;32622;48.202;11.326;2023-05-10T09:42:57;20;17;
46885;PMS5003;32622;48.202;11.326;2023-05-10T09:45:03;20;17;
46885;PMS5003;32622;48.202;11.326;2023-05-10T09:47:11;20;17;
46885;PMS5003;32622;48.202;11.326;2023-05-10T09:49:21;19;17;
46885;PMS5003;32622;48.202;11.326;2023-05-10T09:51:27;19;17;
46885;PMS5003;32622;48.202;11.326;2023-05-10T09:53:31;19;17;
46885;PMS5003;32622;48.202;11.326;2023-05-10T09:55:46;18;16;
46885;PMS5003;32622;48.202;11.326;2023-05-10T09:57:58;18;16;
46885;PMS5003;32622;48.202;11.326;2023-05-10T10:00:07;18;16;
46885;PMS5003;32622;48.202;11.326;2023-05-10T10:02:14;17;15;
46885;PMS5003;32622;48.202;11.326;2023-05-10T10:04:19;17;15;
46885;PMS5003;32622;48.202;11.326;2023-05-10T10:06:23;17;15;
46885;PMS5003;32622;48.202;11.326;2023-05-10T10:08:27;18;16;
46885;PMS5003;32622;48.202;11.326;2023-05-10T10:10:32;18;16;
46885;PMS5003;32622;48.202;11.326;2023-05-10T10:12:39;18;16;
46885;PMS5003;32622;48.202;11.326;2023-05-10T10:14:44;17;16;
46885;PMS5003;32622;48.202;11.326;2023-05-10T10:16:53;17;16;
46885;PMS5003;32622;48.202;11.326;2023-05-10T10:18:57;17;16;
46885;PMS5003;32622;48.202;11.326;2023-05-10T10:21:01;18;17;
46885;PMS5003;32622;48.202;11.326;2023-05-10T10:23:05;18;17;
46885;PMS5003;32622;48.202;11.326;2023-05-10T10:25:11;18;17;
46885;PMS5003;32622;48.202;11.326;2023-05-10T10:27:19;19;18;
46885;PMS5003;32622;48.202;11.326;2023-05-10T10:29:31;19;18;
46885;PMS5003;32622;48.202;11.326;2023-05-10T10:31:46;19;18;
46885;PMS5003;32622;48.202;11.326;2023-05-10T10:39:09;20;20;
46885;PMS5003;32622;48.202;11.326;2023-05-10T10:41:27;20;20;
46885;PMS5003;32622;48.202;11.326;2023-05-10T11:13:13;10;10;
46885;PMS5003;32622;48.202;11.326;2023-05-10T11:17:36;10;10;
46885;PMS5003;32622;48.202;11.326;2023-05-10T11:20:14;10;10;
46885;PMS5003;32622;48.202;11.326;2023-05-10T11:22:20;10;10;
46885;PMS5003;32622;48.202;11.326;2023-05-10T11:24:27;10;10;
46885;PMS5003;32622;48.202;11.326;2023-05-10T11:26:32;10;10;
46885;PMS5003;32622;48.202;11.326;2023-05-10T11:28:41;10;10;
46885;PMS5003;32622;48.202;11.326;2023-05-10T11:30:45;8;8;
46885;PMS5003;32622;48.202;11.326;2023-05-10T11:32:49;8;8;
46885;PMS5003;32622;48.202;11.326;2023-05-10T11:34:52;8;8;
46885;PMS5003;32622;48.202;11.326;2023-05-10T11:36:56;9;9;
46885;PMS5003;32622;48.202;11.326;2023-05-10T11:39:02;9;9;
46885;PMS5003;32622;48.202;11.326;2023-05-10T11:41:09;9;9;
46885;PMS5003;32622;48.202;11.326;2023-05-10T11:43:13;7;7;
46885;PMS5003;32622;48.202;11.326;2023-05-10T11:45:16;7;7;
46885;PMS5003;32622;48.202;11.326;2023-05-10T11:47:20;7;7;
46885;PMS5003;32622;48.202;11.326;2023-05-10T11:49:25;7;7;
46885;PMS5003;32622;48.202;11.326;2023-05-10T11:51:32;7;7;
46885;PMS5003;32622;48.202;11.326;2023-05-10T11:53:37;7;7;
46885;PMS5003;32622;48.202;11.326;2023-05-10T11:55:40;7;7;
46885;PMS5003;32622;48.202;11.326;2023-05-10T11:57:44;7;7;
46885;PMS5003;32622;48.202;11.326;2023-05-10T11:59:47;6;6;
46885;PMS5003;32622;48.202;11.326;2023-05-10T12:01:55;6;6;
46885;PMS5003;32622;48.202;11.326;2023-05-10T12:03:59;6;6;
46885;PMS5003;32622;48.202;11.326;2023-05-10T12:06:06;7;7;
46885;PMS5003;32622;48.202;11.326;2023-05-10T12:08:11;8;8;
46885;PMS5003;32622;48.202;11.326;2023-05-10T12:10:17;8;8;
46885;PMS5003;32622;48.202;11.326;2023-05-10T12:12:35;8;8;
46885;PMS5003;32622;48.202;11.326;2023-05-10T12:14:41;8;8;
46885;PMS5003;32622;48.202;11.326;2023-05-10T12:16:46;8;8;
46885;PMS5003;32622;48.202;11.326;2023-05-10T12:18:57;8;8;
46885;PMS5003;32622;48.202;11.326;2023-05-10T12:21:03;8;8;
46885;PMS5003;32622;48.202;11.326;2023-05-10T12:23:08;8;8;
46885;PMS5003;32622;48.202;11.326;2023-05-10T12:25:12;8;8;
46885;PMS5003;32622;48.202;11.326;2023-05-10T12:27:16;9;9;
46885;PMS5003;32622;48.202;11.326;2023-05-10T12:29:20;9;9;
46885;PMS5003;32622;48.202;11.326;2023-05-10T12:31:25;9;9;
46885;PMS5003;32622;48.202;11.326;2023-05-10T12:33:42;9;9;
46885;PMS5003;32622;48.202;11.326;2023-05-10T12:35:50;8;8;
46885;PMS5003;32622;48.202;11.326;2023-05-10T12:37:56;8;8;
46885;PMS5003;32622;48.202;11.326;2023-05-10T12:40:01;8;8;
46885;PMS5003;32622;48.202;11.326;2023-05-10T12:42:06;9;9;
46885;PMS5003;32622;48.202;11.326;2023-05-10T12:44:11;9;9;
46885;PMS5003;32622;48.202;11.326;2023-05-10T12:46:29;10;10;
46885;PMS5003;32622;48.202;11.326;2023-05-10T12:48:43;10;10;
46885;PMS5003;32622;48.202;11.326;2023-05-10T12:50:51;9;9;
46885;PMS5003;32622;48.202;11.326;2023-05-10T12:53:01;10;9;
46885;PMS5003;32622;48.202;11.326;2023-05-10T12:55:13;10;9;
46885;PMS5003;32622;48.202;11.326;2023-05-10T12:57:55;11;10;
46885;PMS5003;32622;48.202;11.326;2023-05-10T13:00:03;11;10;
46885;PMS5003;32622;48.202;11.326;2023-05-10T13:02:14;11;10;
46885;PMS5003;32622;48.202;11.326;2023-05-10T13:04:20;11;10;
46885;PMS5003;32622;48.202;11.326;2023-05-10T13:06:41;10;10;
46885;PMS5003;32622;48.202;11.326;2023-05-10T13:08:48;10;10;
46885;PMS5003;32622;48.202;11.326;2023-05-10T13:10:51;10;10;
46885;PMS5003;32622;48.202;11.326;2023-05-10T13:13:02;10;9;
46885;PMS5003;32622;48.202;11.326;2023-05-10T13:15:08;10;9;
46885;PMS5003;32622;48.202;11.326;2023-05-10T13:17:12;10;9;
46885;PMS5003;32622;48.202;11.326;2023-05-10T13:19:16;10;10;
46885;PMS5003;32622;48.202;11.326;2023-05-10T13:21:21;10;10;
46885;PMS5003;32622;48.202;11.326;2023-05-10T13:23:25;10;10;
46885;PMS5003;32622;48.202;11.326;2023-05-10T13:25:34;10;9;
46885;PMS5003;32622;48.202;11.326;2023-05-10T13:27:40;9;8;
46885;PMS5003;32622;48.202;11.326;2023-05-10T13:29:44;9;8;
46885;PMS5003;32622;48.202;11.326;2023-05-10T13:31:48;8;7;
46885;PMS5003;32622;48.202;11.326;2023-05-10T13:33:52;9;8;
46885;PMS5003;32622;48.202;11.326;2023-05-10T13:35:55;9;8;
46885;PMS5003;32622;48.202;11.326;2023-05-10T13:37:59;9;8;
46885;PMS5003;32622;48.202;11.326;2023-05-10T13:40:02;9;8;
46885;PMS5003;32622;48.202;11.326;2023-05-10T13:42:07;8;7;
46885;PMS5003;32622;48.202;11.326;2023-05-10T13:44:13;8;8;
46885;PMS5003;32622;48.202;11.326;2023-05-10T13:46:17;8;8;
46885;PMS5003;32622;48.202;11.326;2023-05-10T13:48:20;8;8;
46885;PMS5003;32622;48.202;11.326;2023-05-10T13:50:24;8;8;
46885;PMS5003;32622;48.202;11.326;2023-05-10T13:52:28;8;8;
46885;PMS5003;32622;48.202;11.326;2023-05-10T13:54:33;8;8;
46885;PMS5003;32622;48.202;11.326;2023-05-10T13:56:37;10;10;
46885;PMS5003;32622;48.202;11.326;2023-05-10T13:58:40;10;10;
46885;PMS5003;32622;48.202;11.326;2023-05-10T14:00:44;10;10;
46885;PMS5003;32622;48.202;11.326;2023-05-10T14:02:47;10;10;
46885;PMS5003;32622;48.202;11.326;2023-05-10T14:04:51;10;10;
46885;PMS5003;32622;48.202;11.326;2023-05-10T14:06:55;10;10;
46885;PMS5003;32622;48.202;11.326;2023-05-10T14:08:58;10;10;
46885;PMS5003;32622;48.202;11.326;2023-05-10T14:11:01;10;10;
46885;PMS5003;32622;48.202;11.326;2023-05-10T14:13:04;10;10;
46885;PMS5003;32622;48.202;11.326;2023-05-10T14:15:08;10;10;
46885;PMS5003;32622;48.202;11.326;2023-05-10T14:17:12;9;9;
46885;PMS5003;32622;48.202;11.326;2023-05-10T14:19:15;9;9;
46885;PMS5003;32622;48.202;11.326;2023-05-10T14:21:18;8;8;
46885;PMS5003;32622;48.202;11.326;2023-05-10T14:23:22;8;8;
46885;PMS5003;32622;48.202;11.326;2023-05-10T14:25:26;8;8;
46885;PMS5003;32622;48.202;11.326;2023-05-10T14:27:30;9;9;
46885;PMS5003;32622;48.202;11.326;2023-05-10T14:29:33;9;9;
46885;PMS5003;32622;48.202;11.326;2023-05-10T14:31:36;9;9;
46885;PMS5003;32622;48.202;11.326;2023-05-10T14:33:40;8;8;
46885;PMS5003;32622;48.202;11.326;2023-05-10T14:35:44;8;8;
46885;PMS5003;32622;48.202;11.326;2023-05-10T14:37:50;9;9;
46885;PMS5003;32622;48.202;11.326;2023-05-10T14:39:54;9;9;
46885;PMS5003;32622;48.202;11.326;2023-05-10T14:41:59;9;9;
46885;PMS5003;32622;48.202;11.326;2023-05-10T14:44:04;9;9;
46885;PMS5003;32622;48.202;11.326;2023-05-10T14:46:07;8;7;
46885;PMS5003;32622;48.202;11.326;2023-05-10T14:48:10;8;7;
46885;PMS5003;32622;48.202;11.326;2023-05-10T14:50:13;8;7;
46885;PMS5003;32622;48.202;11.326;2023-05-10T14:52:17;9;8;
46885;PMS5003;32622;48.202;11.326;2023-05-10T14:54:20;9;8;
46885;PMS5003;32622;48.202;11.326;2023-05-10T14:56:24;9;8;
46885;PMS5003;32622;48.202;11.326;2023-05-10T14:58:27;8;7;
46885;PMS5003;32622;48.202;11.326;2023-05-10T15:00:31;7;6;
46885;PMS5003;32622;48.202;11.326;2023-05-10T15:02:36;7;6;
46885;PMS5003;32622;48.202;11.326;2023-05-10T15:04:39;7;6;
46885;PMS5003;32622;48.202;11.326;2023-05-10T15:06:43;8;7;
46885;PMS5003;32622;48.202;11.326;2023-05-10T15:08:46;8;7;
46885;PMS5003;32622;48.202;11.326;2023-05-10T15:10:50;8;7;
46885;PMS5003;32622;48.202;11.326;2023-05-10T15:12:54;8;7;
46885;PMS5003;32622;48.202;11.326;2023-05-10T15:14:58;8;7;
46885;PMS5003;32622;48.202;11.326;2023-05-10T15:17:02;7;6;
46885;PMS5003;32622;48.202;11.326;2023-05-10T15:19:05;7;6;
46885;PMS5003;32622;48.202;11.326;2023-05-10T15:21:08;7;6;
46885;PMS5003;32622;48.202;11.326;2023-05-10T15:23:12;7;6;
46885;PMS5003;32622;48.202;11.326;2023-05-10T15:25:16;7;6;
46885;PMS5003;32622;48.202;11.326;2023-05-10T15:27:19;7;6;
46885;PMS5003;32622;48.202;11.326;2023-05-10T15:29:23;7;6;
46885;PMS5003;32622;48.202;11.326;2023-05-10T15:31:26;7;6;